createdAt,value
2018-06-03T00:00:03.193Z,100342
2018-06-03T00:01:08.305Z,100339
2018-06-03T00:02:13.737Z,100342
2018-06-03T00:03:18.892Z,100336
2018-06-03T00:04:24.734Z,100336
2018-06-03T00:05:29.901Z,100345
2018-06-03T00:06:35.589Z,100351
2018-06-03T00:07:41.025Z,100342
2018-06-03T00:08:46.175Z,100336
2018-06-03T00:09:51.851Z,100339
2018-06-03T00:10:56.451Z,100339
2018-06-03T00:12:01.614Z,100345
2018-06-03T00:13:07.308Z,100351
2018-06-03T00:14:11.891Z,100351
2018-06-03T00:15:17.052Z,100354
2018-06-03T00:16:22.457Z,100354
2018-06-03T00:17:27.602Z,100354
2018-06-03T00:18:33.482Z,100354
2018-06-03T00:19:38.933Z,100356
2018-06-03T00:20:43.798Z,100356
2018-06-03T00:21:49.789Z,100348
2018-06-03T00:22:55.221Z,100351
2018-06-03T00:24:00.652Z,100356
2018-06-03T00:25:06.048Z,100351
2018-06-03T00:26:11.313Z,100348
2018-06-03T00:27:16.964Z,100359
2018-06-03T00:28:22.360Z,100356
2018-06-03T00:29:27.504Z,100348
2018-06-03T00:30:33.414Z,100351
2018-06-03T00:31:38.564Z,100354
2018-06-03T00:32:43.721Z,100359
2018-06-03T00:33:49.291Z,100348
2018-06-03T00:34:54.157Z,100351
2018-06-03T00:35:59.595Z,100351
2018-06-03T00:37:05.013Z,100351
2018-06-03T00:38:09.879Z,100348
2018-06-03T00:39:15.048Z,100351
2018-06-03T00:40:20.754Z,100354
2018-06-03T00:41:26.341Z,100362
2018-06-03T00:42:32.000Z,100354
2018-06-03T00:43:37.145Z,100362
2018-06-03T00:44:42.293Z,100362
2018-06-03T00:45:47.676Z,100345
2018-06-03T00:46:53.124Z,100351
2018-06-03T00:47:58.264Z,100356
2018-06-03T00:49:03.383Z,100356
2018-06-03T00:50:08.538Z,100354
2018-06-03T00:51:13.974Z,100351
2018-06-03T00:52:19.790Z,100351
2018-06-03T00:53:24.659Z,100354
2018-06-03T00:54:30.353Z,100348
2018-06-03T00:55:35.502Z,100351
2018-06-03T00:56:40.934Z,100354
2018-06-03T00:57:46.151Z,100348
2018-06-03T00:58:51.306Z,100345
2018-06-03T00:59:56.452Z,100351
2018-06-03T01:01:01.873Z,100348
2018-06-03T01:02:06.744Z,100356
2018-06-03T01:03:12.212Z,100351
2018-06-03T01:04:17.897Z,100348
2018-06-03T01:05:23.050Z,100348
2018-06-03T01:06:28.669Z,100342
2018-06-03T01:07:33.980Z,100342
2018-06-03T01:08:39.133Z,100345
2018-06-03T01:09:44.736Z,100331
2018-06-03T01:10:49.909Z,100336
2018-06-03T01:11:55.071Z,100325
2018-06-03T01:13:00.756Z,100336
2018-06-03T01:14:05.353Z,100336
2018-06-03T01:15:10.231Z,100339
2018-06-03T01:16:15.644Z,100325
2018-06-03T01:17:21.074Z,100322
2018-06-03T01:18:27.195Z,100334
2018-06-03T01:19:32.408Z,100325
2018-06-03T01:20:37.577Z,100334
2018-06-03T01:21:43.268Z,100331
2018-06-03T01:22:48.135Z,100331
2018-06-03T01:23:53.611Z,100325
2018-06-03T01:24:59.394Z,100334
2018-06-03T01:26:04.262Z,100325
2018-06-03T01:27:09.178Z,100317
2018-06-03T01:28:14.835Z,100331
2018-06-03T01:29:19.732Z,100331
2018-06-03T01:30:40.422Z,100336
2018-06-03T01:31:45.858Z,100320
2018-06-03T01:32:51.291Z,100331
2018-06-03T01:33:56.694Z,100325
2018-06-03T01:35:01.840Z,100320
2018-06-03T01:36:06.720Z,100317
2018-06-03T01:37:12.249Z,100320
2018-06-03T01:38:17.394Z,100325
2018-06-03T01:39:22.258Z,100320
2018-06-03T01:40:27.297Z,100320
2018-06-03T01:41:32.454Z,100311
2018-06-03T01:42:37.590Z,100320
2018-06-03T01:43:42.744Z,100314
2018-06-03T01:44:48.180Z,100305
2018-06-03T01:45:53.970Z,100317
2018-06-03T01:46:58.850Z,100317
2018-06-03T01:48:04.004Z,100311
2018-06-03T01:49:09.518Z,100322
2018-06-03T01:50:14.954Z,100317
2018-06-03T01:51:20.122Z,100317
2018-06-03T01:52:25.357Z,100311
2018-06-03T01:53:30.212Z,100322
2018-06-03T01:54:35.771Z,100322
2018-06-03T01:55:40.653Z,100314
2018-06-03T01:56:45.802Z,100311
2018-06-03T01:57:51.584Z,100299
2018-06-03T01:58:56.737Z,100305
2018-06-03T02:00:01.905Z,100305
2018-06-03T02:01:07.025Z,100317
2018-06-03T02:02:12.456Z,100311
2018-06-03T02:03:17.613Z,100314
2018-06-03T02:04:23.398Z,100311
2018-06-03T02:05:28.597Z,100308
2018-06-03T02:06:34.107Z,100314
2018-06-03T02:07:39.537Z,100308
2018-06-03T02:08:44.972Z,100320
2018-06-03T02:09:50.577Z,100314
2018-06-03T02:10:56.015Z,100311
2018-06-03T02:12:01.179Z,100317
2018-06-03T02:13:06.389Z,100305
2018-06-03T02:14:11.258Z,100305
2018-06-03T02:15:16.133Z,100308
2018-06-03T02:16:21.539Z,100305
2018-06-03T02:17:26.975Z,100314
2018-06-03T02:18:32.923Z,100314
2018-06-03T02:19:38.363Z,100317
2018-06-03T02:20:43.805Z,100311
2018-06-03T02:21:49.501Z,100299
2018-06-03T02:22:54.939Z,100299
2018-06-03T02:24:00.103Z,100302
2018-06-03T02:25:05.508Z,100311
2018-06-03T02:26:10.115Z,100308
2018-06-03T02:27:15.281Z,100322
2018-06-03T02:28:21.114Z,100305
2018-06-03T02:29:26.275Z,100311
2018-06-03T02:30:31.574Z,100308
2018-06-03T02:31:36.730Z,100311
2018-06-03T02:32:42.159Z,100314
2018-06-03T02:33:47.529Z,100308
2018-06-03T02:34:52.118Z,100314
2018-06-03T02:35:57.548Z,100305
2018-06-03T02:37:02.675Z,100314
2018-06-03T02:38:07.268Z,100311
2018-06-03T02:39:12.721Z,100317
2018-06-03T02:40:17.851Z,100325
2018-06-03T02:41:23.281Z,100317
2018-06-03T02:42:28.738Z,100317
2018-06-03T02:43:33.036Z,100311
2018-06-03T02:44:38.189Z,100308
2018-06-03T02:45:43.596Z,100311
2018-06-03T02:46:49.044Z,100308
2018-06-03T02:47:54.503Z,100311
2018-06-03T02:48:59.896Z,100308
2018-06-03T02:50:04.781Z,100314
2018-06-03T02:51:09.368Z,100314
2018-06-03T02:52:15.202Z,100317
2018-06-03T02:53:20.077Z,100334
2018-06-03T02:54:40.415Z,100305
2018-06-03T02:55:45.871Z,100308
2018-06-03T02:56:51.049Z,100302
2018-06-03T02:57:56.923Z,100317
2018-06-03T02:59:02.354Z,100317
2018-06-03T03:00:07.787Z,100308
2018-06-03T03:01:13.181Z,100317
2018-06-03T03:02:18.647Z,100314
2018-06-03T03:03:24.096Z,100317
2018-06-03T03:04:29.580Z,100311
2018-06-03T03:05:35.064Z,100305
2018-06-03T03:06:40.845Z,100311
2018-06-03T03:07:45.712Z,100317
2018-06-03T03:08:50.884Z,100311
2018-06-03T03:09:56.445Z,100308
2018-06-03T03:11:01.877Z,100311
2018-06-03T03:12:06.205Z,100314
2018-06-03T03:13:11.312Z,100322
2018-06-03T03:14:16.741Z,100317
2018-06-03T03:15:21.922Z,100308
2018-06-03T03:16:27.902Z,100311
2018-06-03T03:17:32.515Z,100317
2018-06-03T03:18:38.404Z,100314
2018-06-03T03:19:43.566Z,100325
2018-06-03T03:20:47.871Z,100322
2018-06-03T03:21:53.283Z,100317
2018-06-03T03:22:58.436Z,100308
2018-06-03T03:24:03.579Z,100317
2018-06-03T03:25:08.847Z,100322
2018-06-03T03:26:14.277Z,100325
2018-06-03T03:27:19.712Z,100331
2018-06-03T03:28:24.557Z,100317
2018-06-03T03:29:29.449Z,100314
2018-06-03T03:30:35.441Z,100319
2018-06-03T03:31:40.876Z,100311
2018-06-03T03:32:46.044Z,100322
2018-06-03T03:33:51.723Z,100317
2018-06-03T03:34:57.174Z,100314
2018-06-03T03:36:02.333Z,100311
2018-06-03T03:37:08.015Z,100311
2018-06-03T03:38:13.158Z,100311
2018-06-03T03:39:18.601Z,100317
2018-06-03T03:40:24.283Z,100314
2018-06-03T03:41:29.143Z,100311
2018-06-03T03:42:34.371Z,100325
2018-06-03T03:43:39.810Z,100317
2018-06-03T03:44:45.269Z,100311
2018-06-03T03:45:50.667Z,100314
2018-06-03T03:46:55.246Z,100319
2018-06-03T03:48:00.141Z,100325
2018-06-03T03:49:05.410Z,100319
2018-06-03T03:50:10.564Z,100319
2018-06-03T03:51:15.436Z,100331
2018-06-03T03:52:20.839Z,100319
2018-06-03T03:53:25.983Z,100319
2018-06-03T03:54:31.831Z,100314
2018-06-03T03:55:36.710Z,100322
2018-06-03T03:56:41.853Z,100322
2018-06-03T03:57:47.540Z,100319
2018-06-03T03:58:52.719Z,100319
2018-06-03T03:59:57.573Z,100319
2018-06-03T04:01:02.531Z,100317
2018-06-03T04:02:06.565Z,100319
2018-06-03T04:03:11.731Z,100317
2018-06-03T04:04:16.892Z,100311
2018-06-03T04:05:22.039Z,100314
2018-06-03T04:06:27.513Z,100319
2018-06-03T04:07:33.038Z,100325
2018-06-03T04:08:38.191Z,100319
2018-06-03T04:09:44.035Z,100317
2018-06-03T04:10:49.196Z,100319
2018-06-03T04:11:53.786Z,100319
2018-06-03T04:12:58.715Z,100322
2018-06-03T04:14:04.149Z,100317
2018-06-03T04:15:09.320Z,100322
2018-06-03T04:16:15.100Z,100319
2018-06-03T04:17:19.973Z,100314
2018-06-03T04:18:40.178Z,100331
2018-06-03T04:19:45.614Z,100331
2018-06-03T04:20:51.068Z,100331
2018-06-03T04:21:56.902Z,100325
2018-06-03T04:23:02.061Z,100334
2018-06-03T04:24:06.928Z,100325
2018-06-03T04:25:12.098Z,100331
2018-06-03T04:26:17.255Z,100331
2018-06-03T04:27:22.706Z,100336
2018-06-03T04:28:28.022Z,100334
2018-06-03T04:29:32.877Z,100331
2018-06-03T04:30:38.098Z,100322
2018-06-03T04:31:43.248Z,100331
2018-06-03T04:32:48.106Z,100331
2018-06-03T04:33:53.513Z,100331
2018-06-03T04:34:58.672Z,100334
2018-06-03T04:36:04.103Z,100331
2018-06-03T04:37:09.497Z,100336
2018-06-03T04:38:14.390Z,100331
2018-06-03T04:39:19.542Z,100345
2018-06-03T04:40:25.252Z,100342
2018-06-03T04:41:30.405Z,100353
2018-06-03T04:42:35.787Z,100336
2018-06-03T04:43:40.924Z,100336
2018-06-03T04:44:45.792Z,100331
2018-06-03T04:45:50.921Z,100336
2018-06-03T04:46:55.820Z,100334
2018-06-03T04:48:01.259Z,100339
2018-06-03T04:49:05.994Z,100342
2018-06-03T04:50:11.133Z,100339
2018-06-03T04:51:16.587Z,100342
2018-06-03T04:52:21.740Z,100348
2018-06-03T04:53:26.893Z,100345
2018-06-03T04:54:32.304Z,100345
2018-06-03T04:55:37.749Z,100342
2018-06-03T04:56:42.616Z,100348
2018-06-03T04:57:48.013Z,100345
2018-06-03T04:58:52.887Z,100342
2018-06-03T04:59:58.054Z,100339
2018-06-03T05:01:03.703Z,100336
2018-06-03T05:02:08.601Z,100325
2018-06-03T05:03:14.020Z,100336
2018-06-03T05:04:19.155Z,100336
2018-06-03T05:05:24.616Z,100342
2018-06-03T05:06:30.313Z,100342
2018-06-03T05:07:35.879Z,100348
2018-06-03T05:08:40.737Z,100345
2018-06-03T05:09:46.016Z,100339
2018-06-03T05:10:51.184Z,100350
2018-06-03T05:11:56.371Z,100339
2018-06-03T05:13:01.771Z,100345
2018-06-03T05:14:06.361Z,100339
2018-06-03T05:15:11.526Z,100345
2018-06-03T05:16:17.222Z,100348
2018-06-03T05:17:22.652Z,100345
2018-06-03T05:18:28.204Z,100339
2018-06-03T05:19:33.374Z,100353
2018-06-03T05:20:38.540Z,100348
2018-06-03T05:21:43.655Z,100342
2018-06-03T05:22:48.545Z,100348
2018-06-03T05:23:53.689Z,100342
2018-06-03T05:24:58.963Z,100339
2018-06-03T05:26:03.552Z,100353
2018-06-03T05:27:08.986Z,100356
2018-06-03T05:28:14.588Z,100348
2018-06-03T05:29:19.735Z,100348
2018-06-03T05:31:45.391Z,100359
2018-06-03T05:32:50.841Z,100350
2018-06-03T05:33:55.964Z,100350
2018-06-03T05:35:00.829Z,100348
2018-06-03T05:36:05.703Z,100365
2018-06-03T05:37:11.097Z,100345
2018-06-03T05:38:16.553Z,100345
2018-06-03T05:39:21.995Z,100345
2018-06-03T05:40:27.704Z,100350
2018-06-03T05:41:33.143Z,100348
2018-06-03T05:42:38.819Z,100345
2018-06-03T05:43:43.425Z,100353
2018-06-03T05:44:48.321Z,100356
2018-06-03T05:45:53.739Z,100356
2018-06-03T05:46:58.612Z,100359
2018-06-03T05:48:03.201Z,100356
2018-06-03T05:49:08.611Z,100356
2018-06-03T05:50:13.499Z,100356
2018-06-03T05:51:18.640Z,100362
2018-06-03T05:52:24.326Z,100368
2018-06-03T05:53:29.214Z,100365
2018-06-03T05:54:34.605Z,100362
2018-06-03T05:55:39.776Z,100359
2018-06-03T05:56:45.223Z,100377
2018-06-03T05:57:50.827Z,100368
2018-06-03T05:58:56.296Z,100374
2018-06-03T06:00:01.160Z,100362
2018-06-03T06:01:06.291Z,100368
2018-06-03T06:02:11.443Z,100374
2018-06-03T06:03:16.612Z,100368
2018-06-03T06:04:22.560Z,100371
2018-06-03T06:05:27.989Z,100368
2018-06-03T06:06:33.819Z,100371
2018-06-03T06:07:38.409Z,100371
2018-06-03T06:08:42.994Z,100368
2018-06-03T06:09:48.159Z,100365
2018-06-03T06:10:53.338Z,100362
2018-06-03T06:11:58.219Z,100362
2018-06-03T06:13:03.840Z,100359
2018-06-03T06:14:09.005Z,100365
2018-06-03T06:15:13.867Z,100356
2018-06-03T06:16:19.280Z,100365
2018-06-03T06:17:24.148Z,100374
2018-06-03T06:18:29.658Z,100362
2018-06-03T06:19:35.103Z,100377
2018-06-03T06:20:40.271Z,100374
2018-06-03T06:21:45.825Z,100377
2018-06-03T06:22:51.302Z,100377
2018-06-03T06:23:56.459Z,100374
2018-06-03T06:25:02.251Z,100377
2018-06-03T06:26:07.411Z,100379
2018-06-03T06:27:12.276Z,100379
2018-06-03T06:28:18.077Z,100385
2018-06-03T06:29:23.633Z,100371
2018-06-03T06:30:28.674Z,100379
2018-06-03T06:31:33.841Z,100385
2018-06-03T06:32:38.995Z,100382
2018-06-03T06:33:44.675Z,100382
2018-06-03T06:34:49.745Z,100379
2018-06-03T06:35:55.186Z,100382
2018-06-03T06:37:00.842Z,100385
2018-06-03T06:38:06.012Z,100385
2018-06-03T06:39:11.451Z,100388
2018-06-03T06:40:16.757Z,100394
2018-06-03T06:41:22.186Z,100394
2018-06-03T06:42:27.783Z,100385
2018-06-03T06:43:32.939Z,100388
2018-06-03T06:44:38.102Z,100397
2018-06-03T06:45:43.493Z,100397
2018-06-03T06:46:48.659Z,100391
2018-06-03T06:47:53.237Z,100388
2018-06-03T06:48:58.923Z,100394
2018-06-03T06:50:03.694Z,100394
2018-06-03T06:51:08.667Z,100403
2018-06-03T06:52:14.239Z,100397
2018-06-03T06:53:19.676Z,100403
2018-06-03T06:54:25.147Z,100397
2018-06-03T06:55:30.081Z,100397
2018-06-03T06:56:35.226Z,100403
2018-06-03T06:57:40.333Z,100394
2018-06-03T06:58:45.498Z,100394
2018-06-03T06:59:50.672Z,100403
2018-06-03T07:00:56.082Z,100400
2018-06-03T07:02:01.248Z,100403
2018-06-03T07:03:05.837Z,100400
2018-06-03T07:04:11.155Z,100408
2018-06-03T07:05:16.023Z,100400
2018-06-03T07:06:21.175Z,100400
2018-06-03T07:07:27.163Z,100406
2018-06-03T07:08:32.344Z,100406
2018-06-03T07:09:37.976Z,100400
2018-06-03T07:10:42.841Z,100406
2018-06-03T07:11:48.008Z,100411
2018-06-03T07:12:53.215Z,100417
2018-06-03T07:13:58.374Z,100403
2018-06-03T07:15:03.557Z,100406
2018-06-03T07:16:08.676Z,100408
2018-06-03T07:17:13.275Z,100406
2018-06-03T07:18:18.743Z,100406
2018-06-03T07:19:23.385Z,100408
2018-06-03T07:20:28.862Z,100403
2018-06-03T07:21:34.580Z,100408
2018-06-03T07:22:40.011Z,100411
2018-06-03T07:23:44.590Z,100397
2018-06-03T07:24:49.441Z,100400
2018-06-03T07:25:54.586Z,100417
2018-06-03T07:27:00.045Z,100403
2018-06-03T07:28:05.301Z,100411
2018-06-03T07:29:10.743Z,100411
2018-06-03T07:30:15.900Z,100414
2018-06-03T07:31:21.595Z,100403
2018-06-03T07:32:27.023Z,100414
2018-06-03T07:33:32.420Z,100403
2018-06-03T07:34:37.292Z,100411
2018-06-03T07:35:42.458Z,100409
2018-06-03T07:36:48.240Z,100411
2018-06-03T07:37:53.118Z,100406
2018-06-03T07:38:57.984Z,100414
2018-06-03T07:40:03.943Z,100406
2018-06-03T07:41:09.104Z,100414
2018-06-03T07:42:14.537Z,100417
2018-06-03T07:43:19.805Z,100417
2018-06-03T07:44:24.969Z,100403
2018-06-03T07:45:30.287Z,100414
2018-06-03T07:46:35.453Z,100400
2018-06-03T07:47:40.900Z,100406
2018-06-03T07:48:46.444Z,100414
2018-06-03T07:49:51.899Z,100411
2018-06-03T07:50:57.046Z,100400
2018-06-03T07:52:02.191Z,100409
2018-06-03T07:53:07.058Z,100414
2018-06-03T07:54:12.488Z,100409
2018-06-03T07:55:18.169Z,100414
2018-06-03T07:56:23.612Z,100409
2018-06-03T07:57:29.164Z,100414
2018-06-03T07:58:34.323Z,100409
2018-06-03T07:59:39.200Z,100414
2018-06-03T08:00:44.280Z,100406
2018-06-03T08:01:48.894Z,100412
2018-06-03T08:02:53.770Z,100406
2018-06-03T08:03:58.623Z,100417
2018-06-03T08:05:03.490Z,100409
2018-06-03T08:06:08.380Z,100409
2018-06-03T08:07:13.787Z,100403
2018-06-03T08:08:19.227Z,100400
2018-06-03T08:10:44.546Z,100406
2018-06-03T08:11:49.423Z,100409
2018-06-03T08:12:55.138Z,100400
2018-06-03T08:14:00.007Z,100391
2018-06-03T08:15:04.612Z,100412
2018-06-03T08:16:10.016Z,100406
2018-06-03T08:17:15.445Z,100403
2018-06-03T08:18:20.591Z,100397
2018-06-03T08:19:25.727Z,100397
2018-06-03T08:20:31.176Z,100403
2018-06-03T08:21:36.688Z,100391
2018-06-03T08:22:41.592Z,100397
2018-06-03T08:23:46.783Z,100400
2018-06-03T08:24:52.098Z,100403
2018-06-03T08:25:56.991Z,100394
2018-06-03T08:27:02.149Z,100385
2018-06-03T08:28:07.229Z,100400
2018-06-03T08:29:12.385Z,100400
2018-06-03T08:30:17.544Z,100394
2018-06-03T08:31:22.951Z,100394
2018-06-03T08:32:27.824Z,100397
2018-06-03T08:33:33.065Z,100394
2018-06-03T08:34:38.208Z,100406
2018-06-03T08:35:43.362Z,100409
2018-06-03T08:36:49.047Z,100409
2018-06-03T08:37:53.927Z,100403
2018-06-03T08:38:59.108Z,100406
2018-06-03T08:40:04.286Z,100400
2018-06-03T08:41:09.479Z,100406
2018-06-03T08:42:14.361Z,100406
2018-06-03T08:43:19.590Z,100406
2018-06-03T08:44:25.029Z,100406
2018-06-03T08:45:30.623Z,100391
2018-06-03T08:46:36.078Z,100403
2018-06-03T08:47:41.236Z,100403
2018-06-03T08:48:46.728Z,100409
2018-06-03T08:49:51.876Z,100409
2018-06-03T08:50:56.749Z,100397
2018-06-03T08:52:02.247Z,100406
2018-06-03T08:53:07.170Z,100397
2018-06-03T08:54:12.605Z,100400
2018-06-03T08:55:17.998Z,100394
2018-06-03T08:56:23.164Z,100400
2018-06-03T08:57:29.194Z,100394
2018-06-03T08:58:34.353Z,100400
2018-06-03T08:59:39.507Z,100397
2018-06-03T09:00:45.291Z,100400
2018-06-03T09:01:50.159Z,100394
2018-06-03T09:02:55.317Z,100397
2018-06-03T09:04:01.119Z,100403
2018-06-03T09:05:06.001Z,100406
2018-06-03T09:06:11.156Z,100400
2018-06-03T09:07:16.949Z,100400
2018-06-03T09:08:22.107Z,100394
2018-06-03T09:09:27.156Z,100400
2018-06-03T09:10:32.584Z,100397
2018-06-03T09:11:37.737Z,100403
2018-06-03T09:12:43.590Z,100406
2018-06-03T09:13:48.746Z,100400
2018-06-03T09:14:54.195Z,100394
2018-06-03T09:15:59.976Z,100397
2018-06-03T09:17:04.563Z,100397
2018-06-03T09:18:09.441Z,100400
2018-06-03T09:19:15.124Z,100406
2018-06-03T09:20:20.295Z,100409
2018-06-03T09:21:40.402Z,100394
2018-06-03T09:22:45.268Z,100397
2018-06-03T09:23:50.436Z,100400
2018-06-03T09:24:56.271Z,100400
2018-06-03T09:26:01.933Z,100388
2018-06-03T09:27:06.232Z,100388
2018-06-03T09:28:11.914Z,100388
2018-06-03T09:29:17.352Z,100403
2018-06-03T09:30:22.800Z,100383
2018-06-03T09:31:28.347Z,100388
2018-06-03T09:32:33.808Z,100386
2018-06-03T09:33:39.510Z,100386
2018-06-03T09:34:44.770Z,100383
2018-06-03T09:35:49.353Z,100386
2018-06-03T09:36:54.909Z,100391
2018-06-03T09:38:00.072Z,100386
2018-06-03T09:39:04.941Z,100386
2018-06-03T09:40:10.649Z,100388
2018-06-03T09:41:15.514Z,100388
2018-06-03T09:42:20.093Z,100386
2018-06-03T09:43:25.205Z,100380
2018-06-03T09:44:30.135Z,100388
2018-06-03T09:45:35.844Z,100380
2018-06-03T09:46:40.717Z,100383
2018-06-03T09:47:46.148Z,100377
2018-06-03T09:48:51.832Z,100386
2018-06-03T09:49:56.990Z,100386
2018-06-03T09:51:01.287Z,100386
2018-06-03T09:52:06.429Z,100380
2018-06-03T09:53:11.858Z,100374
2018-06-03T09:54:17.342Z,100386
2018-06-03T09:55:22.470Z,100374
2018-06-03T09:56:27.659Z,100374
2018-06-03T09:57:33.217Z,100371
2018-06-03T09:58:38.650Z,100371
2018-06-03T09:59:44.116Z,100377
2018-06-03T10:00:49.632Z,100374
2018-06-03T10:01:54.510Z,100383
2018-06-03T10:02:59.941Z,100389
2018-06-03T10:04:05.148Z,100380
2018-06-03T10:05:09.461Z,100383
2018-06-03T10:06:14.886Z,100380
2018-06-03T10:07:20.681Z,100371
2018-06-03T10:08:26.125Z,100371
2018-06-03T10:09:31.635Z,100380
2018-06-03T10:10:37.064Z,100377
2018-06-03T10:11:41.931Z,100363
2018-06-03T10:12:47.720Z,100366
2018-06-03T10:13:52.862Z,100360
2018-06-03T10:14:58.300Z,100363
2018-06-03T10:16:03.727Z,100368
2018-06-03T10:17:08.635Z,100366
2018-06-03T10:18:13.791Z,100368
2018-06-03T10:19:18.912Z,100357
2018-06-03T10:20:24.345Z,100360
2018-06-03T10:21:30.374Z,100366
2018-06-03T10:22:35.775Z,100366
2018-06-03T10:23:40.962Z,100369
2018-06-03T10:24:46.791Z,100371
2018-06-03T10:25:51.956Z,100371
2018-06-03T10:26:57.179Z,100366
2018-06-03T10:28:03.207Z,100363
2018-06-03T10:29:08.088Z,100374
2018-06-03T10:30:13.247Z,100360
2018-06-03T10:31:18.941Z,100357
2018-06-03T10:32:24.373Z,100357
2018-06-03T10:33:29.931Z,100363
2018-06-03T10:34:35.123Z,100366
2018-06-03T10:35:40.276Z,100366
2018-06-03T10:36:45.831Z,100371
2018-06-03T10:37:51.295Z,100366
2018-06-03T10:38:56.445Z,100369
2018-06-03T10:40:01.849Z,100363
2018-06-03T10:41:05.281Z,100374
2018-06-03T10:42:10.439Z,100369
2018-06-03T10:43:15.653Z,100371
2018-06-03T10:44:20.516Z,100371
2018-06-03T10:45:26.803Z,100366
2018-06-03T10:46:32.278Z,100380
2018-06-03T10:47:37.423Z,100374
2018-06-03T10:48:42.980Z,100377
2018-06-03T10:49:47.788Z,100374
2018-06-03T10:50:52.942Z,100374
2018-06-03T10:51:57.779Z,100377
2018-06-03T10:53:02.593Z,100371
2018-06-03T10:54:07.758Z,100371
2018-06-03T10:55:12.892Z,100371
2018-06-03T10:56:18.337Z,100369
2018-06-03T10:57:23.508Z,100369
2018-06-03T10:58:43.102Z,100366
2018-06-03T10:59:47.784Z,100371
2018-06-03T11:00:53.773Z,100369
2018-06-03T11:01:59.204Z,100366
2018-06-03T11:03:04.638Z,100366
2018-06-03T11:04:10.192Z,100366
2018-06-03T11:05:15.065Z,100372
2018-06-03T11:06:20.237Z,100366
2018-06-03T11:07:25.632Z,100363
2018-06-03T11:08:30.784Z,100363
2018-06-03T11:09:36.464Z,100363
2018-06-03T11:10:41.623Z,100363
2018-06-03T11:11:46.793Z,100363
2018-06-03T11:12:51.669Z,100360
2018-06-03T11:13:57.100Z,100354
2018-06-03T11:15:01.974Z,100357
2018-06-03T11:16:07.441Z,100366
2018-06-03T11:17:12.606Z,100360
2018-06-03T11:18:17.501Z,100369
2018-06-03T11:19:23.187Z,100354
2018-06-03T11:20:28.360Z,100369
2018-06-03T11:21:34.300Z,100363
2018-06-03T11:22:39.451Z,100363
2018-06-03T11:23:44.602Z,100366
2018-06-03T11:24:50.290Z,100360
2018-06-03T11:25:55.725Z,100366
2018-06-03T11:27:00.733Z,100360
2018-06-03T11:28:05.887Z,100357
2018-06-03T11:29:11.049Z,100366
2018-06-03T11:30:16.222Z,100372
2018-06-03T11:31:21.696Z,100357
2018-06-03T11:32:27.130Z,100363
2018-06-03T11:33:32.404Z,100369
2018-06-03T11:34:37.560Z,100357
2018-06-03T11:35:42.712Z,100357
2018-06-03T11:36:47.829Z,100369
2018-06-03T11:37:52.137Z,100363
2018-06-03T11:38:57.569Z,100363
2018-06-03T11:40:02.561Z,100363
2018-06-03T11:41:07.720Z,100360
2018-06-03T11:42:13.147Z,100357
2018-06-03T11:43:18.931Z,100360
2018-06-03T11:44:24.073Z,100363
2018-06-03T11:45:30.030Z,100360
2018-06-03T11:46:35.496Z,100357
2018-06-03T11:47:40.938Z,100366
2018-06-03T11:48:46.778Z,100357
2018-06-03T11:49:51.681Z,100366
2018-06-03T11:50:56.569Z,100366
2018-06-03T11:52:01.967Z,100372
2018-06-03T11:53:06.868Z,100360
2018-06-03T11:54:11.777Z,100363
2018-06-03T11:55:16.720Z,100357
2018-06-03T11:56:21.600Z,100351
2018-06-03T11:57:26.765Z,100363
2018-06-03T11:58:31.919Z,100354
2018-06-03T11:59:36.799Z,100357
2018-06-03T12:00:42.099Z,100363
2018-06-03T12:01:47.381Z,100363
2018-06-03T12:02:52.702Z,100360
2018-06-03T12:03:58.221Z,100360
2018-06-03T12:05:03.399Z,100363
2018-06-03T12:06:08.562Z,100360
2018-06-03T12:07:13.439Z,100348
2018-06-03T12:08:19.022Z,100357
2018-06-03T12:09:24.168Z,100357
2018-06-03T12:10:29.647Z,100354
2018-06-03T12:11:34.802Z,100354
2018-06-03T12:12:40.303Z,100366
2018-06-03T12:13:45.451Z,100351
2018-06-03T12:14:50.590Z,100357
2018-06-03T12:15:56.153Z,100354
2018-06-03T12:17:00.737Z,100354
2018-06-03T12:18:06.171Z,100354
2018-06-03T12:19:11.587Z,100351
2018-06-03T12:20:16.759Z,100351
2018-06-03T12:21:21.652Z,100343
2018-06-03T12:22:27.249Z,100343
2018-06-03T12:23:32.423Z,100351
2018-06-03T12:24:37.970Z,100348
2018-06-03T12:25:43.129Z,100348
2018-06-03T12:26:48.004Z,100348
2018-06-03T12:27:53.693Z,100343
2018-06-03T12:28:59.042Z,100337
2018-06-03T12:30:04.188Z,100340
2018-06-03T12:31:09.882Z,100335
2018-06-03T12:32:14.764Z,100343
2018-06-03T12:33:19.921Z,100326
2018-06-03T12:34:25.158Z,100346
2018-06-03T12:35:30.312Z,100337
2018-06-03T12:36:35.971Z,100343
2018-06-03T12:37:40.844Z,100335
2018-06-03T12:38:45.711Z,100337
2018-06-03T12:39:51.211Z,100343
2018-06-03T12:40:56.643Z,100335
2018-06-03T12:42:02.071Z,100326
2018-06-03T12:43:07.423Z,100332
2018-06-03T12:44:12.562Z,100335
2018-06-03T12:45:17.721Z,100340
2018-06-03T12:46:22.834Z,100326
2018-06-03T12:47:27.692Z,100323
2018-06-03T12:48:33.623Z,100335
2018-06-03T12:49:39.054Z,100332
2018-06-03T12:50:44.492Z,100323
2018-06-03T12:51:49.613Z,100320
2018-06-03T12:52:54.787Z,100320
2018-06-03T12:54:00.212Z,100317
2018-06-03T12:55:05.328Z,100312
2018-06-03T12:56:10.209Z,100315
2018-06-03T12:57:15.089Z,100315
2018-06-03T12:58:20.495Z,100312
2018-06-03T12:59:25.381Z,100312
2018-06-03T13:00:30.951Z,100309
2018-06-03T13:01:36.403Z,100300
2018-06-03T13:02:41.556Z,100300
2018-06-03T13:03:47.240Z,100294
2018-06-03T13:04:51.811Z,100300
2018-06-03T13:05:56.971Z,100291
2018-06-03T13:07:02.645Z,100297
2018-06-03T13:08:07.507Z,100294
2018-06-03T13:09:12.938Z,100297
2018-06-03T13:10:18.630Z,100300
2018-06-03T13:11:23.491Z,100297
2018-06-03T13:12:29.378Z,100291
2018-06-03T13:13:34.522Z,100291
2018-06-03T13:14:39.677Z,100286
2018-06-03T13:15:45.080Z,100297
2018-06-03T13:16:50.241Z,100291
2018-06-03T13:17:55.139Z,100294
2018-06-03T13:19:00.875Z,100294
2018-06-03T13:20:05.820Z,100281
2018-06-03T13:21:09.854Z,100291
2018-06-03T13:22:15.358Z,100284
2018-06-03T13:23:20.324Z,100286
2018-06-03T13:24:25.910Z,100288
2018-06-03T13:25:31.345Z,100287
2018-06-03T13:26:36.783Z,100284
2018-06-03T13:27:42.612Z,100287
2018-06-03T13:28:47.787Z,100281
2018-06-03T13:29:52.944Z,100288
2018-06-03T13:30:58.630Z,100288
2018-06-03T13:32:04.074Z,100281
2018-06-03T13:33:08.994Z,100284
2018-06-03T13:34:14.691Z,100284
2018-06-03T13:35:20.127Z,100287
2018-06-03T13:36:40.388Z,100287
2018-06-03T13:37:45.544Z,100291